sensor_id;sensor_type;location;lat;lon;timestamp;pressure;altitude;pressure_sealevel;temperature;humidity
35655;BME280;21773;50.010;19.972;2022-10-12T00:02:50;99719.03;;;12.48;63.88
35655;BME280;21773;50.010;19.972;2022-10-12T00:06:01;99745.63;;;12.64;64.13
35655;BME280;21773;50.010;19.972;2022-10-12T00:09:05;99741.88;;;12.65;64.25
35655;BME280;21773;50.010;19.972;2022-10-12T00:12:08;99737.31;;;12.59;64.28
35655;BME280;21773;50.010;19.972;2022-10-12T00:15:14;99742.72;;;12.59;64.23
35655;BME280;21773;50.010;19.972;2022-10-12T00:18:17;99743.19;;;12.49;63.77
35655;BME280;21773;50.010;19.972;2022-10-12T00:21:22;99745.50;;;12.46;63.80
35655;BME280;21773;50.010;19.972;2022-10-12T00:24:25;99744.66;;;12.39;63.76
35655;BME280;21773;50.010;19.972;2022-10-12T00:27:29;99747.38;;;12.32;63.45
35655;BME280;21773;50.010;19.972;2022-10-12T00:30:34;99744.72;;;12.26;63.59
35655;BME280;21773;50.010;19.972;2022-10-12T00:33:41;99723.97;;;12.00;63.22
35655;BME280;21773;50.010;19.972;2022-10-12T00:36:45;99744.50;;;12.14;62.91
35655;BME280;21773;50.010;19.972;2022-10-12T00:39:48;99747.00;;;12.09;62.64
35655;BME280;21773;50.010;19.972;2022-10-12T00:42:52;99745.16;;;12.03;62.33
35655;BME280;21773;50.010;19.972;2022-10-12T00:45:59;99749.94;;;11.94;62.12
35655;BME280;21773;50.010;19.972;2022-10-12T00:49:09;99739.38;;;11.86;62.04
35655;BME280;21773;50.010;19.972;2022-10-12T00:52:14;99739.56;;;11.78;61.55
35655;BME280;21773;50.010;19.972;2022-10-12T00:55:22;99743.47;;;11.69;61.61
35655;BME280;21773;50.010;19.972;2022-10-12T00:58:27;99738.09;;;11.62;61.42
35655;BME280;21773;50.010;19.972;2022-10-12T01:01:34;99739.72;;;11.63;60.94
35655;BME280;21773;50.010;19.972;2022-10-12T01:04:39;99739.13;;;11.61;60.86
35655;BME280;21773;50.010;19.972;2022-10-12T01:07:42;99740.34;;;11.59;61.52
35655;BME280;21773;50.010;19.972;2022-10-12T01:10:46;99742.66;;;11.55;61.82
35655;BME280;21773;50.010;19.972;2022-10-12T01:13:49;99747.84;;;11.57;61.32
35655;BME280;21773;50.010;19.972;2022-10-12T01:16:59;99738.72;;;11.51;61.50
35655;BME280;21773;50.010;19.972;2022-10-12T01:20:27;99740.16;;;11.47;61.04
35655;BME280;21773;50.010;19.972;2022-10-12T01:24:00;99742.44;;;11.37;60.80
35655;BME280;21773;50.010;19.972;2022-10-12T01:27:28;99739.91;;;11.29;60.32
35655;BME280;21773;50.010;19.972;2022-10-12T01:30:39;99744.50;;;11.22;60.13
35655;BME280;21773;50.010;19.972;2022-10-12T01:33:49;99740.53;;;11.11;60.28
35655;BME280;21773;50.010;19.972;2022-10-12T01:37:01;99747.38;;;11.07;60.12
35655;BME280;21773;50.010;19.972;2022-10-12T01:40:12;99732.41;;;10.98;60.01
35655;BME280;21773;50.010;19.972;2022-10-12T01:43:16;99740.06;;;11.01;60.47
35655;BME280;21773;50.010;19.972;2022-10-12T01:46:41;99745.28;;;11.03;60.85
35655;BME280;21773;50.010;19.972;2022-10-12T01:49:45;99738.22;;;11.02;60.88
35655;BME280;21773;50.010;19.972;2022-10-12T01:52:56;99738.03;;;11.03;60.49
35655;BME280;21773;50.010;19.972;2022-10-12T01:56:08;99743.38;;;10.97;59.65
35655;BME280;21773;50.010;19.972;2022-10-12T01:59:18;99746.47;;;10.87;59.81
35655;BME280;21773;50.010;19.972;2022-10-12T02:02:29;99736.72;;;10.79;59.26
35655;BME280;21773;50.010;19.972;2022-10-12T02:05:36;99742.06;;;10.73;59.31
35655;BME280;21773;50.010;19.972;2022-10-12T02:08:48;99746.22;;;10.69;59.34
35655;BME280;21773;50.010;19.972;2022-10-12T02:11:59;99748.88;;;10.62;59.21
35655;BME280;21773;50.010;19.972;2022-10-12T02:15:07;99747.19;;;10.55;59.02
35655;BME280;21773;50.010;19.972;2022-10-12T02:18:16;99745.09;;;10.50;59.26
35655;BME280;21773;50.010;19.972;2022-10-12T02:21:24;99754.63;;;10.53;59.61
35655;BME280;21773;50.010;19.972;2022-10-12T02:24:32;99748.81;;;10.56;59.99
35655;BME280;21773;50.010;19.972;2022-10-12T02:27:41;99745.53;;;10.54;59.75
35655;BME280;21773;50.010;19.972;2022-10-12T02:30:49;99745.91;;;10.51;59.52
35655;BME280;21773;50.010;19.972;2022-10-12T02:34:00;99750.50;;;10.50;59.38
35655;BME280;21773;50.010;19.972;2022-10-12T02:37:09;99748.59;;;10.44;59.35
35655;BME280;21773;50.010;19.972;2022-10-12T02:40:17;99748.78;;;10.42;59.33
35655;BME280;21773;50.010;19.972;2022-10-12T02:43:25;99751.28;;;10.44;59.58
35655;BME280;21773;50.010;19.972;2022-10-12T02:46:32;99751.28;;;10.44;59.58
35655;BME280;21773;50.010;19.972;2022-10-12T02:49:39;99746.91;;;10.43;60.08
35655;BME280;21773;50.010;19.972;2022-10-12T02:52:44;99752.13;;;10.45;60.62
35655;BME280;21773;50.010;19.972;2022-10-12T02:55:49;99747.34;;;10.47;61.19
35655;BME280;21773;50.010;19.972;2022-10-12T02:58:53;99726.75;;;10.32;61.16
35655;BME280;21773;50.010;19.972;2022-10-12T03:01:56;99753.78;;;10.46;61.12
35655;BME280;21773;50.010;19.972;2022-10-12T03:05:00;99749.41;;;10.45;61.30
35655;BME280;21773;50.010;19.972;2022-10-12T03:08:04;99750.84;;;10.40;61.05
35655;BME280;21773;50.010;19.972;2022-10-12T03:11:11;99757.09;;;10.48;61.01
35655;BME280;21773;50.010;19.972;2022-10-12T03:14:14;99750.69;;;10.49;61.07
35655;BME280;21773;50.010;19.972;2022-10-12T03:17:19;99766.84;;;10.49;61.40
35655;BME280;21773;50.010;19.972;2022-10-12T03:20:24;99759.59;;;10.49;61.56
35655;BME280;21773;50.010;19.972;2022-10-12T03:23:27;99751.50;;;10.49;61.41
35655;BME280;21773;50.010;19.972;2022-10-12T03:26:30;99752.94;;;10.45;61.44
35655;BME280;21773;50.010;19.972;2022-10-12T03:29:33;99749.41;;;10.45;61.39
35655;BME280;21773;50.010;19.972;2022-10-12T03:32:37;99752.72;;;10.47;61.33
35655;BME280;21773;50.010;19.972;2022-10-12T03:35:43;99747.56;;;10.45;61.15
35655;BME280;21773;50.010;19.972;2022-10-12T03:38:47;99748.41;;;10.46;61.45
35655;BME280;21773;50.010;19.972;2022-10-12T03:41:50;99760.81;;;10.47;61.61
35655;BME280;21773;50.010;19.972;2022-10-12T03:44:54;99760.63;;;10.48;61.32
35655;BME280;21773;50.010;19.972;2022-10-12T03:47:57;99757.75;;;10.50;61.35
35655;BME280;21773;50.010;19.972;2022-10-12T03:51:07;99762.06;;;10.51;61.14
35655;BME280;21773;50.010;19.972;2022-10-12T03:54:10;99757.28;;;10.46;61.09
35655;BME280;21773;50.010;19.972;2022-10-12T03:57:13;99755.19;;;10.41;61.34
35655;BME280;21773;50.010;19.972;2022-10-12T04:00:17;99759.13;;;10.39;61.21
35655;BME280;21773;50.010;19.972;2022-10-12T04:03:21;99764.09;;;10.35;61.30
35655;BME280;21773;50.010;19.972;2022-10-12T04:06:26;99762.00;;;10.31;61.21
35655;BME280;21773;50.010;19.972;2022-10-12T04:12:32;99759.84;;;10.20;61.17
35655;BME280;21773;50.010;19.972;2022-10-12T04:15:35;99761.44;;;10.14;61.03
35655;BME280;21773;50.010;19.972;2022-10-12T04:18:39;99767.22;;;10.11;61.00
35655;BME280;21773;50.010;19.972;2022-10-12T04:21:43;99766.94;;;9.99;60.97
35655;BME280;21773;50.010;19.972;2022-10-12T04:24:47;99772.72;;;9.96;61.04
35655;BME280;21773;50.010;19.972;2022-10-12T04:27:50;99761.25;;;9.88;61.17
35655;BME280;21773;50.010;19.972;2022-10-12T04:30:53;99769.78;;;9.91;61.13
35655;BME280;21773;50.010;19.972;2022-10-12T04:33:56;99777.91;;;9.98;60.82
35655;BME280;21773;50.010;19.972;2022-10-12T04:37:01;99774.59;;;9.96;60.17
35655;BME280;21773;50.010;19.972;2022-10-12T04:40:06;99766.63;;;9.88;60.27
35655;BME280;21773;50.010;19.972;2022-10-12T04:43:10;99771.16;;;9.81;60.57
35655;BME280;21773;50.010;19.972;2022-10-12T04:46:13;99766.13;;;9.78;60.76
35655;BME280;21773;50.010;19.972;2022-10-12T04:49:18;99769.47;;;9.80;61.04
35655;BME280;21773;50.010;19.972;2022-10-12T04:52:23;99776.97;;;9.84;61.46
35655;BME280;21773;50.010;19.972;2022-10-12T04:55:27;99773.06;;;9.87;61.53
35655;BME280;21773;50.010;19.972;2022-10-12T04:58:30;99773.69;;;9.89;61.31
35655;BME280;21773;50.010;19.972;2022-10-12T05:01:34;99767.63;;;9.80;61.45
35655;BME280;21773;50.010;19.972;2022-10-12T05:04:37;99771.44;;;9.92;61.66
35655;BME280;21773;50.010;19.972;2022-10-12T05:07:42;99777.72;;;9.99;61.56
35655;BME280;21773;50.010;19.972;2022-10-12T05:10:45;99776.72;;;10.07;61.43
35655;BME280;21773;50.010;19.972;2022-10-12T05:13:49;99783.19;;;10.13;61.47
35655;BME280;21773;50.010;19.972;2022-10-12T05:16:52;99784.94;;;10.20;61.38
35655;BME280;21773;50.010;19.972;2022-10-12T05:19:56;99790.16;;;10.28;61.73
35655;BME280;21773;50.010;19.972;2022-10-12T05:23:01;99786.91;;;10.39;61.44
35655;BME280;21773;50.010;19.972;2022-10-12T05:26:04;99787.41;;;10.50;61.45
35655;BME280;21773;50.010;19.972;2022-10-12T05:29:08;99799.69;;;10.65;61.36
35655;BME280;21773;50.010;19.972;2022-10-12T05:32:11;99787.28;;;10.71;61.78
35655;BME280;21773;50.010;19.972;2022-10-12T05:35:15;99791.25;;;10.75;61.62
35655;BME280;21773;50.010;19.972;2022-10-12T05:38:20;99796.94;;;10.93;61.89
35655;BME280;21773;50.010;19.972;2022-10-12T05:41:23;99798.41;;;11.02;61.88
35655;BME280;21773;50.010;19.972;2022-10-12T05:44:26;99778.03;;;11.00;61.69
35655;BME280;21773;50.010;19.972;2022-10-12T05:47:30;99796.03;;;11.40;63.44
35655;BME280;21773;50.010;19.972;2022-10-12T05:50:33;99802.47;;;11.46;60.76
35655;BME280;21773;50.010;19.972;2022-10-12T05:53:38;99800.59;;;11.40;61.08
35655;BME280;21773;50.010;19.972;2022-10-12T05:56:41;99796.88;;;11.47;60.96
35655;BME280;21773;50.010;19.972;2022-10-12T05:59:44;99797.91;;;11.59;60.79
35655;BME280;21773;50.010;19.972;2022-10-12T06:02:48;99798.97;;;11.65;60.58
35655;BME280;21773;50.010;19.972;2022-10-12T06:05:51;99803.13;;;11.67;60.53
35655;BME280;21773;50.010;19.972;2022-10-12T06:08:56;99808.78;;;11.79;59.78
35655;BME280;21773;50.010;19.972;2022-10-12T06:11:59;99811.47;;;11.86;59.14
35655;BME280;21773;50.010;19.972;2022-10-12T06:15:03;99803.56;;;11.84;59.07
35655;BME280;21773;50.010;19.972;2022-10-12T06:18:07;99813.56;;;12.03;59.31
35655;BME280;21773;50.010;19.972;2022-10-12T06:21:10;99815.00;;;12.12;59.12
35655;BME280;21773;50.010;19.972;2022-10-12T06:24:35;99816.03;;;12.18;59.05
35655;BME280;21773;50.010;19.972;2022-10-12T06:27:39;99817.06;;;12.30;59.30
35655;BME280;21773;50.010;19.972;2022-10-12T06:30:42;99818.81;;;12.76;58.76
35655;BME280;21773;50.010;19.972;2022-10-12T06:33:45;99826.16;;;13.26;57.26
35655;BME280;21773;50.010;19.972;2022-10-12T06:36:51;99818.44;;;13.61;56.09
35655;BME280;21773;50.010;19.972;2022-10-12T06:39:59;99810.72;;;13.89;55.70
35655;BME280;21773;50.010;19.972;2022-10-12T06:43:02;99816.81;;;14.10;54.62
35655;BME280;21773;50.010;19.972;2022-10-12T06:46:06;99815.44;;;14.25;53.79
35655;BME280;21773;50.010;19.972;2022-10-12T06:49:09;99818.84;;;14.64;53.31
35655;BME280;21773;50.010;19.972;2022-10-12T06:52:13;99816.25;;;15.24;51.59
35655;BME280;21773;50.010;19.972;2022-10-12T06:55:18;99822.34;;;16.32;49.50
35655;BME280;21773;50.010;19.972;2022-10-12T06:58:22;99826.88;;;17.41;46.76
35655;BME280;21773;50.010;19.972;2022-10-12T07:01:25;99827.91;;;19.24;43.42
35655;BME280;21773;50.010;19.972;2022-10-12T07:04:28;99821.53;;;22.42;37.55
35655;BME280;21773;50.010;19.972;2022-10-12T07:07:33;99835.84;;;25.56;32.32
35655;BME280;21773;50.010;19.972;2022-10-12T07:10:38;99824.63;;;27.78;28.44
35655;BME280;21773;50.010;19.972;2022-10-12T07:13:42;99824.88;;;28.48;26.78
35655;BME280;21773;50.010;19.972;2022-10-12T07:16:45;99831.91;;;27.87;27.77
35655;BME280;21773;50.010;19.972;2022-10-12T07:19:55;99823.38;;;27.21;28.53
35655;BME280;21773;50.010;19.972;2022-10-12T07:22:59;99827.69;;;27.54;28.67
35655;BME280;21773;50.010;19.972;2022-10-12T07:26:03;99824.38;;;27.38;27.92
35655;BME280;21773;50.010;19.972;2022-10-12T07:29:09;99832.28;;;27.04;28.75
35655;BME280;21773;50.010;19.972;2022-10-12T07:32:12;99806.47;;;27.08;28.09
35655;BME280;21773;50.010;19.972;2022-10-12T07:35:15;99828.28;;;27.24;28.33
35655;BME280;21773;50.010;19.972;2022-10-12T07:38:19;99826.63;;;27.64;27.77
35655;BME280;21773;50.010;19.972;2022-10-12T07:41:23;99818.69;;;28.07;26.89
35655;BME280;21773;50.010;19.972;2022-10-12T07:44:28;99822.06;;;29.58;26.04
35655;BME280;21773;50.010;19.972;2022-10-12T07:47:32;99820.00;;;30.15;24.91
35655;BME280;21773;50.010;19.972;2022-10-12T07:50:36;99817.19;;;30.06;24.93
35655;BME280;21773;50.010;19.972;2022-10-12T07:53:40;99814.22;;;29.60;24.86
35655;BME280;21773;50.010;19.972;2022-10-12T07:56:45;99815.13;;;28.81;25.78
35655;BME280;21773;50.010;19.972;2022-10-12T07:59:48;99806.88;;;28.15;26.68
35655;BME280;21773;50.010;19.972;2022-10-12T08:02:51;99801.47;;;27.74;27.04
35655;BME280;21773;50.010;19.972;2022-10-12T08:05:55;99812.47;;;27.51;27.38
35655;BME280;21773;50.010;19.972;2022-10-12T08:08:59;99805.72;;;27.57;27.44
35655;BME280;21773;50.010;19.972;2022-10-12T08:12:04;99808.97;;;27.95;26.71
35655;BME280;21773;50.010;19.972;2022-10-12T08:15:08;99806.53;;;28.16;27.06
35655;BME280;21773;50.010;19.972;2022-10-12T08:18:12;99814.03;;;28.38;26.44
35655;BME280;21773;50.010;19.972;2022-10-12T08:21:16;99806.47;;;28.52;26.07
35655;BME280;21773;50.010;19.972;2022-10-12T08:24:19;99804.22;;;28.63;26.28
35655;BME280;21773;50.010;19.972;2022-10-12T08:27:24;99812.84;;;28.30;26.39
35655;BME280;21773;50.010;19.972;2022-10-12T08:30:27;99818.38;;;27.72;27.48
35655;BME280;21773;50.010;19.972;2022-10-12T08:33:30;99808.69;;;27.61;27.52
35655;BME280;21773;50.010;19.972;2022-10-12T08:36:34;99802.25;;;28.32;26.43
35655;BME280;21773;50.010;19.972;2022-10-12T08:39:37;99803.19;;;29.20;25.51
35655;BME280;21773;50.010;19.972;2022-10-12T08:42:51;99805.22;;;30.32;23.95
35655;BME280;21773;50.010;19.972;2022-10-12T08:45:58;99802.84;;;31.44;23.15
35655;BME280;21773;50.010;19.972;2022-10-12T08:49:05;99801.09;;;32.22;22.44
35655;BME280;21773;50.010;19.972;2022-10-12T08:52:21;99792.81;;;33.16;21.76
35655;BME280;21773;50.010;19.972;2022-10-12T08:55:33;99802.84;;;34.21;20.15
35655;BME280;21773;50.010;19.972;2022-10-12T08:58:39;99798.75;;;35.22;19.13
35655;BME280;21773;50.010;19.972;2022-10-12T09:02:01;99810.78;;;36.11;19.00
35655;BME280;21773;50.010;19.972;2022-10-12T09:05:10;99797.97;;;36.52;17.04
35655;BME280;21773;50.010;19.972;2022-10-12T09:08:26;99804.78;;;36.32;17.85
35655;BME280;21773;50.010;19.972;2022-10-12T09:11:56;99784.28;;;35.54;18.05
35655;BME280;21773;50.010;19.972;2022-10-12T09:15:10;99799.91;;;35.20;18.56
35655;BME280;21773;50.010;19.972;2022-10-12T09:18:20;99784.78;;;35.09;18.05
35655;BME280;21773;50.010;19.972;2022-10-12T09:21:26;99792.91;;;35.14;18.22
35655;BME280;21773;50.010;19.972;2022-10-12T09:24:34;99795.22;;;36.14;17.77
35655;BME280;21773;50.010;19.972;2022-10-12T09:27:40;99797.63;;;36.99;17.17
35655;BME280;21773;50.010;19.972;2022-10-12T09:31:00;99795.31;;;37.54;16.13
35655;BME280;21773;50.010;19.972;2022-10-12T09:34:08;99792.94;;;37.86;16.13
35655;BME280;21773;50.010;19.972;2022-10-12T09:37:20;99793.41;;;37.61;15.93
35655;BME280;21773;50.010;19.972;2022-10-12T09:40:25;99794.69;;;37.97;15.20
35655;BME280;21773;50.010;19.972;2022-10-12T09:43:31;99798.44;;;38.79;14.80
35655;BME280;21773;50.010;19.972;2022-10-12T09:46:40;99797.53;;;39.70;14.31
35655;BME280;21773;50.010;19.972;2022-10-12T09:49:46;99797.06;;;40.37;13.45
35655;BME280;21773;50.010;19.972;2022-10-12T09:52:51;99789.84;;;40.67;13.65
35655;BME280;21773;50.010;19.972;2022-10-12T09:56:05;99783.69;;;40.23;13.72
35655;BME280;21773;50.010;19.972;2022-10-12T09:59:25;99785.56;;;39.91;13.00
35655;BME280;21773;50.010;19.972;2022-10-12T10:02:31;99772.13;;;39.70;13.72
35655;BME280;21773;50.010;19.972;2022-10-12T10:05:37;99775.75;;;39.67;14.17
35655;BME280;21773;50.010;19.972;2022-10-12T10:08:42;99780.88;;;39.44;13.86
35655;BME280;21773;50.010;19.972;2022-10-12T10:11:46;99766.50;;;39.08;13.28
35655;BME280;21773;50.010;19.972;2022-10-12T10:14:50;99774.03;;;38.93;13.93
35655;BME280;21773;50.010;19.972;2022-10-12T10:17:56;99769.31;;;38.64;13.65
35655;BME280;21773;50.010;19.972;2022-10-12T10:21:03;99766.06;;;39.06;14.14
35655;BME280;21773;50.010;19.972;2022-10-12T10:24:20;99771.31;;;39.66;13.23
35655;BME280;21773;50.010;19.972;2022-10-12T10:27:31;99772.72;;;40.07;12.57
35655;BME280;21773;50.010;19.972;2022-10-12T10:30:35;99761.06;;;40.16;12.83
35655;BME280;21773;50.010;19.972;2022-10-12T10:33:43;99764.25;;;40.18;12.31
35655;BME280;21773;50.010;19.972;2022-10-12T10:36:49;99762.66;;;40.17;11.86
35655;BME280;21773;50.010;19.972;2022-10-12T10:39:54;99758.53;;;39.86;12.24
35655;BME280;21773;50.010;19.972;2022-10-12T10:43:01;99746.41;;;39.20;12.73
35655;BME280;21773;50.010;19.972;2022-10-12T10:46:05;99753.94;;;38.54;12.78
35655;BME280;21773;50.010;19.972;2022-10-12T10:49:24;99756.44;;;38.67;12.96
35655;BME280;21773;50.010;19.972;2022-10-12T10:52:29;99757.31;;;39.18;12.87
35655;BME280;21773;50.010;19.972;2022-10-12T10:55:42;99749.69;;;39.29;13.14
35655;BME280;21773;50.010;19.972;2022-10-12T10:58:49;99754.41;;;39.11;12.60
35655;BME280;21773;50.010;19.972;2022-10-12T11:01:55;99750.41;;;39.12;12.87
35655;BME280;21773;50.010;19.972;2022-10-12T11:05:06;99755.59;;;39.10;12.92
35655;BME280;21773;50.010;19.972;2022-10-12T11:08:16;99742.84;;;39.27;12.56
35655;BME280;21773;50.010;19.972;2022-10-12T11:11:24;99742.78;;;39.20;12.61
35655;BME280;21773;50.010;19.972;2022-10-12T11:14:34;99755.25;;;39.15;12.70
35655;BME280;21773;50.010;19.972;2022-10-12T11:17:41;99746.97;;;38.85;12.17
35655;BME280;21773;50.010;19.972;2022-10-12T11:20:51;99748.25;;;38.14;12.60
35655;BME280;21773;50.010;19.972;2022-10-12T11:24:01;99740.59;;;36.99;12.72
35655;BME280;21773;50.010;19.972;2022-10-12T11:27:11;99742.28;;;36.80;13.80
35655;BME280;21773;50.010;19.972;2022-10-12T11:30:20;99736.25;;;37.27;13.84
35655;BME280;21773;50.010;19.972;2022-10-12T11:33:28;99743.97;;;37.94;13.86
35655;BME280;21773;50.010;19.972;2022-10-12T11:36:40;99733.69;;;38.08;13.92
35655;BME280;21773;50.010;19.972;2022-10-12T11:40:08;99738.63;;;38.19;12.86
35655;BME280;21773;50.010;19.972;2022-10-12T11:43:32;99734.31;;;38.69;12.22
35655;BME280;21773;50.010;19.972;2022-10-12T11:46:43;99735.19;;;37.99;13.16
35655;BME280;21773;50.010;19.972;2022-10-12T11:49:54;99721.22;;;37.72;13.59
35655;BME280;21773;50.010;19.972;2022-10-12T11:53:04;99717.75;;;37.86;13.19
35655;BME280;21773;50.010;19.972;2022-10-12T11:56:13;99700.75;;;37.79;13.21
35655;BME280;21773;50.010;19.972;2022-10-12T11:59:26;99714.50;;;37.84;13.87
35655;BME280;21773;50.010;19.972;2022-10-12T12:02:37;99721.28;;;37.80;13.96
35655;BME280;21773;50.010;19.972;2022-10-12T12:05:42;99721.44;;;37.60;12.78
35655;BME280;21773;50.010;19.972;2022-10-12T12:08:57;99707.63;;;37.22;13.95
35655;BME280;21773;50.010;19.972;2022-10-12T12:12:13;99707.22;;;35.48;14.00
35655;BME280;21773;50.010;19.972;2022-10-12T12:15:21;99684.38;;;34.17;14.81
35655;BME280;21773;50.010;19.972;2022-10-12T12:18:27;99702.34;;;33.61;16.13
35655;BME280;21773;50.010;19.972;2022-10-12T12:25:19;99702.53;;;32.55;17.81
35655;BME280;21773;50.010;19.972;2022-10-12T12:28:24;99697.97;;;32.26;17.54
35655;BME280;21773;50.010;19.972;2022-10-12T12:31:28;99690.66;;;31.89;17.85
35655;BME280;21773;50.010;19.972;2022-10-12T12:34:33;99690.00;;;31.50;17.76
35655;BME280;21773;50.010;19.972;2022-10-12T12:37:36;99689.88;;;31.26;18.50
35655;BME280;21773;50.010;19.972;2022-10-12T12:40:53;99689.03;;;31.05;19.12
35655;BME280;21773;50.010;19.972;2022-10-12T12:43:58;99687.50;;;30.02;18.97
35655;BME280;21773;50.010;19.972;2022-10-12T12:47:21;99683.47;;;29.91;19.88
35655;BME280;21773;50.010;19.972;2022-10-12T12:50:45;99687.16;;;29.00;20.74
35655;BME280;21773;50.010;19.972;2022-10-12T12:53:55;99669.66;;;28.91;21.45
35655;BME280;21773;50.010;19.972;2022-10-12T12:57:23;99677.84;;;28.96;21.14
35655;BME280;21773;50.010;19.972;2022-10-12T13:00:33;99682.06;;;28.94;21.28
35655;BME280;21773;50.010;19.972;2022-10-12T13:03:56;99679.47;;;28.97;21.39
35655;BME280;21773;50.010;19.972;2022-10-12T13:07:42;99681.34;;;28.71;21.45
35655;BME280;21773;50.010;19.972;2022-10-12T13:11:03;99677.94;;;28.04;21.23
35655;BME280;21773;50.010;19.972;2022-10-12T13:14:21;99664.69;;;27.70;21.93
35655;BME280;21773;50.010;19.972;2022-10-12T13:17:48;99671.41;;;27.19;22.75
35655;BME280;21773;50.010;19.972;2022-10-12T13:20:56;99671.38;;;26.69;23.04
35655;BME280;21773;50.010;19.972;2022-10-12T13:24:04;99652.25;;;26.32;23.55
35655;BME280;21773;50.010;19.972;2022-10-12T13:27:19;99668.28;;;26.16;23.42
35655;BME280;21773;50.010;19.972;2022-10-12T13:30:34;99647.78;;;25.90;24.09
35655;BME280;21773;50.010;19.972;2022-10-12T13:33:43;99671.00;;;25.89;23.72
35655;BME280;21773;50.010;19.972;2022-10-12T13:36:56;99661.47;;;25.95;24.60
35655;BME280;21773;50.010;19.972;2022-10-12T13:40:01;99659.97;;;26.03;24.74
35655;BME280;21773;50.010;19.972;2022-10-12T13:43:19;99653.41;;;25.99;24.35
35655;BME280;21773;50.010;19.972;2022-10-12T13:46:45;99660.16;;;26.06;24.71
35655;BME280;21773;50.010;19.972;2022-10-12T13:49:50;99655.53;;;25.88;24.56
35655;BME280;21773;50.010;19.972;2022-10-12T13:52:53;99641.72;;;25.88;24.63
35655;BME280;21773;50.010;19.972;2022-10-12T13:56:00;99663.56;;;26.17;24.32
35655;BME280;21773;50.010;19.972;2022-10-12T13:59:04;99659.78;;;26.13;23.70
35655;BME280;21773;50.010;19.972;2022-10-12T14:02:21;99659.16;;;26.02;23.90
35655;BME280;21773;50.010;19.972;2022-10-12T14:05:26;99655.75;;;25.92;24.26
35655;BME280;21773;50.010;19.972;2022-10-12T14:08:32;99649.34;;;25.64;24.18
35655;BME280;21773;50.010;19.972;2022-10-12T14:11:38;99651.97;;;24.99;24.86
35655;BME280;21773;50.010;19.972;2022-10-12T14:14:44;99641.47;;;25.01;25.25
35655;BME280;21773;50.010;19.972;2022-10-12T14:17:50;99645.34;;;25.00;25.16
35655;BME280;21773;50.010;19.972;2022-10-12T14:21:03;99647.00;;;25.01;25.44
35655;BME280;21773;50.010;19.972;2022-10-12T14:24:08;99649.75;;;25.01;25.00
35655;BME280;21773;50.010;19.972;2022-10-12T14:27:21;99646.19;;;25.00;25.29
35655;BME280;21773;50.010;19.972;2022-10-12T14:30:28;99645.06;;;25.01;25.16
35655;BME280;21773;50.010;19.972;2022-10-12T14:33:33;99643.91;;;25.02;25.78
35655;BME280;21773;50.010;19.972;2022-10-12T14:36:36;99640.50;;;24.92;25.26
35655;BME280;21773;50.010;19.972;2022-10-12T14:39:40;99635.81;;;24.69;25.30
35655;BME280;21773;50.010;19.972;2022-10-12T14:42:53;99634.81;;;24.41;25.05
35655;BME280;21773;50.010;19.972;2022-10-12T14:45:57;99631.72;;;24.24;25.81
35655;BME280;21773;50.010;19.972;2022-10-12T14:49:02;99637.22;;;23.95;26.09
35655;BME280;21773;50.010;19.972;2022-10-12T14:52:09;99641.91;;;23.65;26.39
35655;BME280;21773;50.010;19.972;2022-10-12T14:55:21;99635.69;;;23.16;27.14
35655;BME280;21773;50.010;19.972;2022-10-12T14:58:25;99634.75;;;22.92;27.69
35655;BME280;21773;50.010;19.972;2022-10-12T15:01:29;99601.38;;;22.54;27.84
35655;BME280;21773;50.010;19.972;2022-10-12T15:04:33;99628.28;;;22.62;28.30
35655;BME280;21773;50.010;19.972;2022-10-12T15:07:37;99637.69;;;22.51;28.62
35655;BME280;21773;50.010;19.972;2022-10-12T15:10:43;99627.00;;;22.39;28.69
35655;BME280;21773;50.010;19.972;2022-10-12T15:13:48;99625.97;;;22.25;29.35
35655;BME280;21773;50.010;19.972;2022-10-12T15:16:51;99634.25;;;22.00;30.05
35655;BME280;21773;50.010;19.972;2022-10-12T15:19:56;99634.81;;;21.82;30.22
35655;BME280;21773;50.010;19.972;2022-10-12T15:23:00;99640.91;;;21.58;30.32
35655;BME280;21773;50.010;19.972;2022-10-12T15:26:04;99636.22;;;21.34;30.77
35655;BME280;21773;50.010;19.972;2022-10-12T15:29:07;99638.97;;;21.13;31.38
35655;BME280;21773;50.010;19.972;2022-10-12T15:32:12;99638.06;;;20.93;31.65
35655;BME280;21773;50.010;19.972;2022-10-12T15:35:19;99645.69;;;20.70;32.11
35655;BME280;21773;50.010;19.972;2022-10-12T15:38:22;99652.13;;;20.39;32.62
35655;BME280;21773;50.010;19.972;2022-10-12T15:41:26;99649.53;;;20.17;32.98
35655;BME280;21773;50.010;19.972;2022-10-12T15:44:29;99641.97;;;19.87;33.68
35655;BME280;21773;50.010;19.972;2022-10-12T15:47:34;99647.59;;;19.71;34.00
35655;BME280;21773;50.010;19.972;2022-10-12T15:50:41;99645.50;;;19.46;34.54
35655;BME280;21773;50.010;19.972;2022-10-12T15:53:45;99643.13;;;19.28;34.36
35655;BME280;21773;50.010;19.972;2022-10-12T15:56:48;99636.91;;;19.06;35.29
35655;BME280;21773;50.010;19.972;2022-10-12T15:59:52;99642.72;;;18.87;35.90
35655;BME280;21773;50.010;19.972;2022-10-12T16:02:55;99645.88;;;18.74;36.06
35655;BME280;21773;50.010;19.972;2022-10-12T16:06:00;99646.47;;;18.54;36.79
35655;BME280;21773;50.010;19.972;2022-10-12T16:09:04;99647.06;;;18.40;36.70
35655;BME280;21773;50.010;19.972;2022-10-12T16:12:07;99652.31;;;18.25;37.30
35655;BME280;21773;50.010;19.972;2022-10-12T16:15:11;99655.91;;;18.08;37.62
35655;BME280;21773;50.010;19.972;2022-10-12T16:18:15;99653.31;;;17.97;37.70
35655;BME280;21773;50.010;19.972;2022-10-12T16:21:20;99631.72;;;17.73;38.25
35655;BME280;21773;50.010;19.972;2022-10-12T16:24:23;99647.72;;;17.70;38.43
35655;BME280;21773;50.010;19.972;2022-10-12T16:27:28;99646.66;;;17.54;39.00